Página principal
METAR-TAF:

METAR-TAF

Aeroportos :

Bucareste, Roménia

Aeroporto Internacional Henri Coandă

latitude: 44-33N, longitude: 026-06E, altura: 95 m

Observação actual do tempo

O boletim foi feito há 26 minutos, às 23:30 UTC
Vento 4 kt de nor-noroeste
Temperatura 18°C
Humidade 77%
Pressão 1016 hPa
Visibilidade 10 km ou mais
sem nuvens abaixo de 1500 metros e sem cumulonimbus

METAR: LROP 182330Z 33004KT CAVOK 18/14 Q1016 NOSIG

Hora: 02:56 (23:56 UTC)

Previsão

O boletim foi feito há 56 minutos, às 23:00 UTC
Previsão válida de 19 às 00 UTC a 19 às 24 UTC
Vento 4 kt com direcção variável
Visibilidade 10 km ou mais
sem nuvens abaixo de 1500 metros e sem cumulonimbus

TAF: LROP 182300Z 1900/1924 VRB04KT CAVOK

Observações e previsões do tempo de mais de 4000 aeroportos (mensagens METAR e TAF).

As estações disponíveis são os pontos amarelos e vermelhos sobre o mapa.

Mova o rato sobre o mapa para ver o nome da estação.

Depois clique no ponto para visualizar as observações e previsões meteorológicas.

Para alterar o mapa : clique nos botões verdes com uma cruz preta para aumentar o zoom; no botão verde com uma pitada de zoom; ou nas setas verdes para mapas adjacentes.


METAR-TAF: